Архив погоды в Троицко-Печорском

Метеограмма Троицко-Печорское
Среда, 21 Августа
Время местн. Темп Ветер Видим Явления Облачность нижн/средн/верх Атм. давл. Влжн Точка росы ВНГО R Сост. почвы Tg s
Напр Скр Прв ур.ст ур.м изм
21:00 +16.1° Ю-З 1 - 4 км дымка {ливневые осадки} облачно 753 765 -0.5 94% +15.1° 600 м - - - -
18:00 +17.7° Ю-З 2 - 10 км ливневый дождь облачно 753 765 -0.2 82% +14.6° 600 м 0.3 - - -
15:00 +21.6° Ю 2 - 20 км - преимущественно облачно 753 765 -1 54% +12° 600 м - - - -
12:00 +21.4° Ю,Ю-В 3 - 20 км - преимущественно облачно 754 766 -0.8 52% +11.1° - - - - -
09:00 +19.4° Ю-В 3 - 20 км - облачно с прояснениями 755 767 -0.5 64% +12.4° - - - - -
06:00 +13° Ю 2 - 20 км - облачно с прояснениями 756 768 +0.1 79% +9.4° - 0 Влажная (без луж) - -
03:00 +12.3° В,Ю-В 2 - 20 км - переменная облачность 755 768 +0.3 85% +9.9° - - - - -
00:00 +14.2° штиль 0 - 20 км - облачно с прояснениями 755 767 +0.1 91% +12.8° - - - - -
Вторник, 20 Августа
Время местн. Темп Ветер Видим Явления Облачность нижн/средн/верх Атм. давл. Влжн Точка росы ВНГО R Сост. почвы Tg s
Напр Скр Прв ур.ст ур.м изм
21:00 +14.9° штиль 0 - 20 км - облачно 755 767 +0.5 92% +13.6° - - - - -
18:00 +18.1° Ю-В 1 - 20 км - облачно с прояснениями 754 767 +0.2 73% +13.2° более 2.5 км 0.5 - - -
15:00 +19.4° В,Ю-В 3 - 20 км - преимущественно облачно 754 766 +0.1 71% +13.9° 600 м - - - -
12:00 +16.4° В,Ю-В 4 - 20 км - облачно 754 766 0 85% +13.9° 600 м - - - -
09:00 +14.3° В 2 - 10 км слабый дождь с перерывами облачно 754 767 +0.2 94% +13.3° 300 м - - - -
06:00 +13.5° В 2 - 10 км слабый дождь с перерывами облачно 754 766 -0.3 80% +10.1° 600 м 0 Влажная (без луж) - -
03:00 +12.5° В 1 - 20 км - преимущественно облачно 754 767 -0.6 79% +9° - - - - -
00:00 +13.4° Ю-В 1 - 20 км - переменная облачность 755 767 -0.6 75% +9° более 2.5 км - - - -
Понедельник, 19 Августа
Время местн. Темп Ветер Видим Явления Облачность нижн/средн/верх Атм. давл. Влжн Точка росы ВНГО R Сост. почвы Tg s
Напр Скр Прв ур.ст ур.м изм
21:00 +13.7° Ю-В 1 - 20 км - облачно с прояснениями 756 768 -0.2 78% +9.9° более 2.5 км - - - -
18:00 +20.2° В,Ю-В 2 - 50 км - облачно с прояснениями 756 768 -0.8 48% +8.9° 1 км 0 - - -
15:00 +22.9° В,Ю-В 3 - 50 км - переменная облачность 757 768 -0.7 39% +8.3° 1 км - - - -
12:00 +23° Ю-В 3 - 50 км - переменная облачность 758 770 -0.6 47% +11.2° 1 км - - - -
09:00 +18° Ю 2 - 20 км - переменная облачность 758 770 -0.2 67% +11.7° более 2.5 км - - - -
06:00 +12.1° В 1 - 20 км - переменная облачность 758 771 +0.4 84% +9.5° более 2.5 км 0 - - -
03:00 +7.5° С 1 - 20 км - ясно 758 771 +0.4 94% +6.6° более 2.5 км - - - -
00:00 +10.4° С,С-В 1 - 20 км - ясно 758 770 +0.5 89% +8.6° более 2.5 км - - - -
Воскресенье, 18 Августа
Время местн. Темп Ветер Видим Явления Облачность нижн/средн/верх Атм. давл. Влжн Точка росы ВНГО R Сост. почвы Tg s
Напр Скр Прв ур.ст ур.м изм
21:00 +11.3° С,С-В 1 - 20 км - ясно 757 770 +0.6 90% +9.8° более 2.5 км - - - -
18:00 +17.1° С 1 - 20 км - незначительная облачность 757 769 +0.4 72% +12° 1 км 0 - - -